Cypress, IL

2:01 AM CDT on June 03, 2015 (GMT -0500)
Cairo Regional | | Change Station
CLOSE
Current Station
Airport
Location: Cairo,
Elevation: 322 ft
Nearby Weather Stations

Elev 322 ft 37.06 °N, 89.22 °W | Updated 26 minutes ago

Mostly Cloudy
Mostly Cloudy
63 °F
Feels Like 63 °F
N
5
Wind Variable Wind from ENE

Today
High -- | Low -- °F
--% Chance of Precip.
Yesterday
High -- | Low -- °F
Precip. -- in
5:36 AM 8:12 PM
Full, 100% visible
Pressure 30.03 in
Visibility 7.0 miles
Clouds Overcast 3300 ft
Dew Point 59 °F
Humidity 88%
Rainfall 0.00 in
Snow Depth Not available.
UV 0 out of 12
Pollen 7.20 out of 12
Air Quality Not available.
Flu Activity Sporadic
METAR KCIR 030635Z AUTO 07004KT 7SM OVC033 17/15 A3003 RMK AO2 T01700150

More Conditions Fewer Conditions

Pressure 30.03 in
Visibility 7.0 miles
Clouds Overcast 3300 ft
Dew Point 59 °F
Humidity 88%
Rainfall 0.00 in
Snow Depth Not available.
UV 0 out of 12
Pollen 7.20 out of 12
Air Quality Not available.
Flu Activity Sporadic
METAR KCIR 030635Z AUTO 07004KT 7SM OVC033 17/15 A3003 RMK AO2 T01700150

More Conditions Fewer Conditions

10-Day Weather Forecast

×

Almanac

Astronomy

Jun. 03, 2015 Rise Set
Actual Time
Civil Twilight
Nautical Twilight
Astronomical Twilight
Moon
Length of Visible Light
Length of Day
Tomorrow will be .
, % of the Moon is Illuminated

Today's Extremes

State Highs State Lows

Community

WunderPhotos

Upload Photos

1,826,185 photos uploaded!

WunderBlogs® & News

Nearby

Air Quality

  Air Quality AQ Index Pollutant
Not available.

Snow Depth

Station Depth Elevation

Earthquake Activity

City Distance Mag. Time & Date
Minimum magnitude displayed is 2.5.

Coastal Water Temperatures

Place Temperature

Stations

Nearby Weather Stations

Station Location Temp. Windchill Dew Point Humidity Wind Precip. Elev Updated Type